Time;durP1;ratioP1;P1;durP2;ratioP2;P2;SDS_P1;SDS_P2;PMS_P1;PMS_P2;Temp;Humidity;BMP_temperature;BMP_pressure;BME280_temperature;BME280_humidity;BME280_pressure;Samples;Min_cycle;Max_cycle;Signal;HPM_P1;HPM_P2
2021/08/15 00:01:35;;;;;;;15.20;8.20;;;17.70;99.90;;;;;;4997874;28;20968;-68
2021/08/15 00:04:02;;;;;;;14.37;8.03;;;17.80;99.90;;;;;;4994591;28;20544;-68
2021/08/15 00:06:29;;;;;;;14.27;7.30;;;17.80;99.90;;;;;;4992198;28;21014;-71
2021/08/15 00:08:57;;;;;;;16.57;9.23;;;17.80;99.90;;;;;;4992791;28;20472;-69
2021/08/15 00:11:25;;;;;;;16.37;9.00;;;17.80;99.90;;;;;;4997042;28;20490;-69
2021/08/15 00:13:52;;;;;;;18.53;9.20;;;17.80;99.90;;;;;;4992917;28;20517;-68
2021/08/15 00:16:19;;;;;;;12.00;8.47;;;17.80;99.90;;;;;;4994751;28;20564;-70
2021/08/15 00:18:46;;;;;;;12.90;8.07;;;17.70;99.90;;;;;;4990870;28;20969;-69
2021/08/15 00:21:13;;;;;;;15.70;10.17;;;17.70;99.90;;;;;;4996161;28;20560;-70
2021/08/15 00:23:40;;;;;;;15.30;8.23;;;17.70;99.90;;;;;;5000881;28;20477;-69
2021/08/15 00:26:09;;;;;;;20.43;9.83;;;17.70;99.90;;;;;;4997047;28;20507;-70
2021/08/15 00:28:36;;;;;;;12.40;9.13;;;17.60;99.90;;;;;;4994381;28;21047;-71
2021/08/15 00:31:04;;;;;;;14.17;7.27;;;17.70;99.90;;;;;;4992336;28;21022;-68
2021/08/15 00:33:31;;;;;;;11.37;6.80;;;17.60;99.90;;;;;;4988440;28;21014;-69
2021/08/15 00:35:58;;;;;;;14.43;8.30;;;17.60;99.90;;;;;;4993324;28;20546;-70
2021/08/15 00:38:25;;;;;;;12.20;9.30;;;17.50;99.90;;;;;;4993586;28;20453;-72
2021/08/15 00:40:52;;;;;;;20.30;10.60;;;17.30;99.90;;;;;;4993708;28;20570;-73
2021/08/15 00:43:20;;;;;;;14.23;9.30;;;17.30;99.90;;;;;;4997832;28;20542;-69
2021/08/15 00:45:47;;;;;;;15.67;8.67;;;17.40;99.90;;;;;;4993081;28;20574;-69
2021/08/15 00:48:14;;;;;;;9.80;6.40;;;17.30;99.90;;;;;;4989238;28;20588;-70
2021/08/15 00:50:41;;;;;;;14.23;7.17;;;17.40;99.90;;;;;;4992228;28;20557;-69
2021/08/15 00:53:08;;;;;;;13.30;7.70;;;17.50;99.90;;;;;;4992651;28;20473;-70
2021/08/15 00:55:36;;;;;;;14.70;7.87;;;17.50;99.90;;;;;;4992060;28;20454;-70
2021/08/15 00:58:05;;;;;;;12.57;8.57;;;17.50;99.90;;;;;;4990972;28;20528;-69
2021/08/15 01:00:34;;;;;;;22.90;9.80;;;17.50;99.90;;;;;;4990973;28;20622;-69
2021/08/15 01:03:01;;;;;;;14.40;10.83;;;17.40;99.90;;;;;;4991403;28;20540;-68
2021/08/15 01:05:28;;;;;;;14.47;8.13;;;17.40;99.90;;;;;;4999337;28;20483;-71
2021/08/15 01:07:55;;;;;;;14.73;8.77;;;17.40;99.90;;;;;;4998732;28;20476;-68
2021/08/15 01:10:22;;;;;;;15.93;9.07;;;17.40;99.90;;;;;;4997131;28;20477;-67
2021/08/15 01:12:49;;;;;;;10.47;7.60;;;17.40;99.90;;;;;;4994778;28;20552;-69
2021/08/15 01:15:18;;;;;;;13.53;6.23;;;17.40;99.90;;;;;;4993450;28;20469;-69
2021/08/15 01:17:46;;;;;;;11.07;8.33;;;17.40;99.90;;;;;;4996444;28;20486;-69
2021/08/15 01:20:14;;;;;;;16.53;9.20;;;17.40;99.90;;;;;;4994997;28;20505;-69
2021/08/15 01:22:42;;;;;;;12.63;8.33;;;17.40;99.90;;;;;;4997335;28;20835;-68
2021/08/15 01:25:10;;;;;;;15.50;8.50;;;17.30;99.90;;;;;;4998809;28;20831;-70
2021/08/15 01:27:40;;;;;;;22.27;9.57;;;17.20;99.90;;;;;;4999105;28;20541;-73
2021/08/15 01:30:10;;;;;;;16.60;9.30;;;17.20;99.90;;;;;;4999174;28;20561;-70
2021/08/15 01:32:39;;;;;;;13.00;9.33;;;17.20;99.90;;;;;;4996639;28;20449;-69
2021/08/15 01:35:07;;;;;;;12.33;7.60;;;17.20;99.90;;;;;;4996609;28;20473;-68
2021/08/15 01:37:34;;;;;;;15.30;9.07;;;17.20;99.90;;;;;;5002203;28;20513;-71
2021/08/15 01:40:03;;;;;;;17.63;10.27;;;17.20;99.90;;;;;;4994694;28;20559;-71
2021/08/15 01:42:30;;;;;;;28.50;9.00;;;17.20;99.90;;;;;;4990524;28;20882;-70
2021/08/15 01:44:58;;;;;;;16.60;9.30;;;17.20;99.90;;;;;;4992614;28;20822;-73
2021/08/15 01:47:27;;;;;;;13.73;8.40;;;17.20;99.90;;;;;;4999304;28;20475;-70
2021/08/15 01:49:54;;;;;;;13.77;8.67;;;17.10;99.90;;;;;;4999177;28;20488;-73
2021/08/15 01:52:21;;;;;;;14.30;8.90;;;17.20;99.90;;;;;;4990817;28;20933;-69
2021/08/15 01:54:48;;;;;;;13.50;8.40;;;17.20;99.90;;;;;;4994592;28;20556;-68
2021/08/15 01:57:15;;;;;;;12.00;8.10;;;17.20;99.90;;;;;;4993618;28;20481;-70
2021/08/15 01:59:42;;;;;;;16.20;8.97;;;17.10;99.90;;;;;;4991428;28;20509;-68
2021/08/15 02:02:09;;;;;;;15.27;8.80;;;17.00;99.90;;;;;;4997512;28;20477;-68
2021/08/15 02:04:38;;;;;;;18.83;11.03;;;17.00;99.90;;;;;;4987418;28;20465;-69
2021/08/15 02:07:05;;;;;;;23.03;9.53;;;17.00;99.90;;;;;;4998673;28;20533;-71
2021/08/15 02:09:33;;;;;;;15.80;9.70;;;17.00;99.90;;;;;;5000716;28;21577;-69
2021/08/15 02:12:01;;;;;;;15.80;9.67;;;17.00;99.90;;;;;;4994801;28;25652;-68
2021/08/15 02:14:28;;;;;;;15.60;10.47;;;17.00;99.90;;;;;;4997653;28;20476;-70
2021/08/15 02:16:55;;;;;;;14.33;8.87;;;17.00;99.90;;;;;;4991202;28;20544;-69
2021/08/15 02:19:22;;;;;;;10.43;7.00;;;17.00;99.90;;;;;;4989296;28;20991;-70
2021/08/15 02:21:51;;;;;;;15.30;9.53;;;16.90;99.90;;;;;;4989943;28;20532;-72
2021/08/15 02:24:18;;;;;;;16.90;9.90;;;16.90;99.90;;;;;;4992598;28;20560;-71
2021/08/15 02:26:45;;;;;;;13.00;9.27;;;16.80;99.90;;;;;;4991551;28;20915;-71
2021/08/15 02:29:11;;;;;;;18.20;10.00;;;16.90;99.90;;;;;;4994940;28;20623;-69
2021/08/15 02:31:38;;;;;;;14.87;8.33;;;16.70;99.90;;;;;;4990103;28;20456;-70
2021/08/15 02:34:05;;;;;;;14.50;8.90;;;16.80;99.90;;;;;;4993948;28;20548;-72
2021/08/15 02:36:32;;;;;;;15.80;8.77;;;16.70;99.90;;;;;;4994841;28;20568;-69
2021/08/15 02:39:01;;;;;;;12.90;8.57;;;16.70;99.90;;;;;;4997921;28;20821;-69
2021/08/15 02:41:28;;;;;;;17.47;8.50;;;16.70;99.90;;;;;;5002907;28;20537;-71
2021/08/15 02:43:55;;;;;;;16.47;9.03;;;16.70;99.90;;;;;;4994987;28;21018;-73
2021/08/15 02:46:22;;;;;;;14.80;8.27;;;16.70;99.90;;;;;;4991745;28;20453;-71
2021/08/15 02:48:48;;;;;;;16.73;9.20;;;16.60;99.90;;;;;;4993203;28;20544;-70
2021/08/15 02:51:15;;;;;;;15.20;8.83;;;16.60;99.90;;;;;;4996237;28;20500;-69
2021/08/15 02:53:42;;;;;;;18.03;9.10;;;16.60;99.90;;;;;;4992620;28;20553;-68
2021/08/15 02:56:11;;;;;;;18.97;9.90;;;16.60;99.90;;;;;;4993688;28;20502;-68
2021/08/15 02:58:38;;;;;;;17.93;10.03;;;16.60;99.90;;;;;;5000272;28;20656;-69
2021/08/15 03:01:04;;;;;;;19.30;10.17;;;16.50;99.90;;;;;;4997338;28;20548;-68
2021/08/15 03:03:31;;;;;;;16.73;9.63;;;16.50;99.90;;;;;;4997301;28;20600;-69
2021/08/15 03:05:58;;;;;;;16.10;8.33;;;16.50;99.90;;;;;;4996788;28;21010;-71
2021/08/15 03:08:25;;;;;;;14.60;10.37;;;16.50;99.90;;;;;;5000871;28;20532;-70
2021/08/15 03:10:52;;;;;;;23.17;9.17;;;16.50;99.90;;;;;;5005971;28;20600;-68
2021/08/15 03:13:20;;;;;;;13.93;9.87;;;16.50;99.90;;;;;;4996724;28;20516;-69
2021/08/15 03:15:47;;;;;;;11.23;8.73;;;16.40;99.90;;;;;;4996575;28;20555;-70
2021/08/15 03:18:17;;;;;;;15.67;10.20;;;16.50;99.90;;;;;;4996777;28;20513;-70
2021/08/15 03:20:44;;;;;;;19.13;12.23;;;16.50;99.90;;;;;;4997412;28;20480;-72
2021/08/15 03:23:11;;;;;;;14.23;9.47;;;16.50;99.90;;;;;;5002896;28;20785;-70
2021/08/15 03:25:38;;;;;;;15.67;7.87;;;16.50;99.90;;;;;;4993447;28;20552;-69
2021/08/15 03:28:06;;;;;;;17.83;9.80;;;16.50;99.90;;;;;;5000352;28;20546;-72
2021/08/15 03:30:35;;;;;;;16.70;7.90;;;16.60;99.90;;;;;;4997206;28;20561;-69
2021/08/15 03:33:02;;;;;;;21.33;9.77;;;16.60;99.90;;;;;;5004957;28;20822;-71
2021/08/15 03:35:28;;;;;;;14.90;9.10;;;16.60;99.90;;;;;;4998734;28;20515;-68
2021/08/15 03:37:55;;;;;;;13.30;7.97;;;16.60;99.90;;;;;;5001603;28;20486;-68
2021/08/15 03:40:23;;;;;;;15.63;8.73;;;16.60;99.90;;;;;;4999138;28;20889;-69
2021/08/15 03:42:50;;;;;;;17.00;10.97;;;16.60;99.90;;;;;;4999942;28;20523;-70
2021/08/15 03:45:16;;;;;;;15.23;8.40;;;16.50;99.90;;;;;;4994438;28;20584;-70
2021/08/15 03:47:45;;;;;;;15.47;8.77;;;16.50;99.90;;;;;;4998744;28;20505;-68
2021/08/15 03:50:12;;;;;;;12.40;8.37;;;16.40;99.90;;;;;;4999706;28;20552;-71
2021/08/15 03:52:39;;;;;;;20.10;9.43;;;16.30;99.90;;;;;;5002842;28;20495;-70
2021/08/15 03:55:10;;;;;;;13.50;10.53;;;16.30;99.90;;;;;;4997154;28;20461;-71
2021/08/15 03:57:37;;;;;;;11.63;7.63;;;16.20;99.90;;;;;;4999396;28;20484;-71
2021/08/15 04:00:05;;;;;;;10.97;8.37;;;16.20;99.90;;;;;;5003428;28;20623;-67
2021/08/15 04:02:32;;;;;;;14.90;9.20;;;16.20;99.90;;;;;;4999557;28;20504;-70
2021/08/15 04:05:01;;;;;;;17.50;9.20;;;16.20;99.90;;;;;;5000219;28;20970;-69
2021/08/15 04:07:28;;;;;;;16.10;8.60;;;16.20;99.90;;;;;;4991641;28;20471;-71
2021/08/15 04:09:55;;;;;;;15.80;9.40;;;16.10;99.90;;;;;;4998199;28;20495;-69
2021/08/15 04:12:22;;;;;;;10.67;8.17;;;16.10;99.90;;;;;;5001226;28;20985;-72
2021/08/15 04:14:48;;;;;;;13.77;7.33;;;16.20;99.90;;;;;;4997982;28;20581;-69
2021/08/15 04:17:16;;;;;;;15.43;9.30;;;16.20;99.90;;;;;;5000301;28;20584;-71
2021/08/15 04:19:43;;;;;;;14.10;8.90;;;16.20;99.90;;;;;;4993561;28;20469;-69
2021/08/15 04:22:12;;;;;;;13.40;8.60;;;16.20;99.90;;;;;;5002831;28;20453;-69
2021/08/15 04:24:39;;;;;;;14.37;7.70;;;16.20;99.90;;;;;;4998376;28;20557;-70
2021/08/15 04:27:06;;;;;;;11.30;7.80;;;16.20;99.90;;;;;;5003492;28;21202;-67
2021/08/15 04:29:35;;;;;;;12.20;8.30;;;16.20;99.90;;;;;;4998176;28;20560;-71
2021/08/15 04:32:02;;;;;;;17.50;9.13;;;16.30;99.90;;;;;;4998971;28;20450;-70
2021/08/15 04:34:29;;;;;;;19.60;12.13;;;16.30;99.90;;;;;;4994266;28;20462;-68
2021/08/15 04:36:56;;;;;;;11.90;8.20;;;16.40;99.90;;;;;;5001433;28;20544;-68
2021/08/15 04:39:24;;;;;;;11.30;6.60;;;16.40;99.90;;;;;;5000029;28;20576;-69
2021/08/15 04:41:51;;;;;;;14.07;8.80;;;16.40;99.90;;;;;;4994324;28;20479;-68
2021/08/15 04:44:18;;;;;;;15.90;9.30;;;16.40;99.90;;;;;;4993995;28;20553;-73
2021/08/15 04:46:45;;;;;;;15.27;7.83;;;16.40;99.90;;;;;;5004039;28;20584;-70
2021/08/15 04:49:12;;;;;;;14.43;10.30;;;16.20;99.90;;;;;;5004397;28;20884;-67
2021/08/15 04:51:39;;;;;;;18.70;8.50;;;16.10;99.90;;;;;;5004806;28;20552;-70
2021/08/15 04:54:06;;;;;;;17.97;9.57;;;16.10;99.90;;;;;;4999377;28;20545;-67
2021/08/15 04:56:34;;;;;;;14.00;7.97;;;16.30;99.90;;;;;;5001203;28;20893;-69
2021/08/15 04:59:01;;;;;;;14.70;9.63;;;16.40;99.90;;;;;;5000447;28;20567;-70
2021/08/15 05:01:28;;;;;;;16.80;10.00;;;16.50;99.90;;;;;;4995705;28;20471;-68
2021/08/15 05:03:55;;;;;;;17.20;8.37;;;16.60;99.90;;;;;;4994112;28;20906;-68
2021/08/15 05:06:22;;;;;;;24.23;9.50;;;16.80;99.90;;;;;;4997355;28;20500;-69
2021/08/15 05:08:49;;;;;;;17.47;8.10;;;16.80;99.90;;;;;;4993585;28;20445;-69
2021/08/15 05:11:17;;;;;;;14.13;7.80;;;16.80;99.90;;;;;;5000169;28;20556;-69
2021/08/15 05:13:45;;;;;;;13.00;9.00;;;16.80;99.90;;;;;;5002785;28;20469;-69
2021/08/15 05:16:12;;;;;;;22.10;10.23;;;17.00;99.90;;;;;;5000857;28;20449;-69
2021/08/15 05:18:39;;;;;;;17.07;9.10;;;17.30;99.90;;;;;;4997558;28;20585;-70
2021/08/15 05:21:06;;;;;;;9.70;7.40;;;17.60;99.90;;;;;;4999414;28;20552;-70
2021/08/15 05:23:33;;;;;;;12.93;7.37;;;17.90;99.90;;;;;;5005938;28;20994;-69
2021/08/15 05:26:00;;;;;;;13.67;8.53;;;18.10;99.90;;;;;;5001127;28;20489;-70
2021/08/15 05:28:27;;;;;;;12.67;8.40;;;18.40;99.90;;;;;;5001815;28;20469;-70
2021/08/15 05:30:55;;;;;;;10.83;8.63;;;18.70;99.90;;;;;;5000637;28;20592;-69
2021/08/15 05:33:22;;;;;;;10.30;7.77;;;18.80;99.90;;;;;;4999536;28;20452;-73
2021/08/15 05:35:49;;;;;;;13.97;8.53;;;18.90;99.90;;;;;;4992680;28;20509;-71
2021/08/15 05:38:16;;;;;;;17.67;9.37;;;18.90;99.90;;;;;;5003397;28;20560;-70
2021/08/15 05:40:43;;;;;;;17.60;9.23;;;18.70;99.90;;;;;;4994432;28;20616;-71
2021/08/15 05:43:11;;;;;;;18.27;8.87;;;18.70;99.90;;;;;;4995489;28;20828;-70
2021/08/15 05:45:38;;;;;;;13.93;8.70;;;18.80;99.90;;;;;;5000784;28;20485;-69
2021/08/15 05:48:07;;;;;;;18.00;10.40;;;18.90;99.90;;;;;;4996996;28;20449;-70
2021/08/15 05:50:34;;;;;;;16.73;9.00;;;19.20;99.90;;;;;;5001842;28;21052;-70
2021/08/15 05:53:01;;;;;;;13.60;8.97;;;19.40;99.90;;;;;;4998752;28;20450;-69
2021/08/15 05:55:28;;;;;;;16.40;8.50;;;19.70;99.90;;;;;;4994417;28;21052;-70
2021/08/15 05:57:55;;;;;;;16.67;9.57;;;19.80;99.90;;;;;;4989930;28;20572;-73
2021/08/15 06:00:22;;;;;;;17.60;10.73;;;19.90;99.90;;;;;;5000037;28;20903;-70
2021/08/15 06:02:49;;;;;;;17.57;9.90;;;20.00;99.90;;;;;;4996131;28;20545;-69
2021/08/15 06:05:17;;;;;;;14.60;9.23;;;20.20;99.90;;;;;;4997420;28;20489;-70
2021/08/15 06:07:44;;;;;;;17.37;9.50;;;20.10;99.90;;;;;;5000814;28;20473;-69
2021/08/15 06:10:12;;;;;;;21.53;10.20;;;20.30;99.90;;;;;;5002386;28;20549;-70
2021/08/15 06:12:39;;;;;;;13.33;8.83;;;20.20;99.90;;;;;;5000026;28;20520;-70
2021/08/15 06:15:12;;;;;;;17.90;9.67;;;20.30;99.90;;;;;;5002136;28;20578;-68
2021/08/15 06:17:39;;;;;;;22.13;11.80;;;20.20;99.90;;;;;;4999421;28;20967;-70
2021/08/15 06:20:07;;;;;;;16.90;9.97;;;20.30;99.90;;;;;;5003409;28;20560;-70
2021/08/15 06:22:39;;;;;;;14.23;8.77;;;20.40;99.90;;;;;;4996984;28;20460;-71
2021/08/15 06:25:08;;;;;;;21.27;9.23;;;20.30;99.90;;;;;;5001754;28;20548;-72
2021/08/15 06:27:35;;;;;;;17.43;10.53;;;20.50;99.90;;;;;;5000257;28;20488;-70
2021/08/15 06:30:03;;;;;;;12.00;9.50;;;20.60;99.90;;;;;;5000010;28;20549;-70
2021/08/15 06:32:30;;;;;;;17.17;9.17;;;20.60;99.90;;;;;;5007034;28;20541;-70
2021/08/15 06:34:56;;;;;;;21.07;10.43;;;20.60;99.90;;;;;;5004679;28;20457;-70
2021/08/15 06:37:23;;;;;;;22.03;9.47;;;20.50;99.90;;;;;;4999362;28;20533;-70
2021/08/15 06:39:51;;;;;;;17.17;9.07;;;20.50;99.90;;;;;;5002085;28;20583;-69
2021/08/15 06:42:18;;;;;;;17.97;9.30;;;20.60;99.90;;;;;;5004881;28;20486;-69
2021/08/15 06:44:45;;;;;;;11.80;7.10;;;20.70;99.90;;;;;;4996814;28;20464;-69
2021/08/15 06:47:12;;;;;;;15.57;8.57;;;20.90;99.90;;;;;;5005658;28;21590;-69
2021/08/15 06:49:39;;;;;;;14.40;7.60;;;21.20;99.90;;;;;;5007394;28;21134;-69
2021/08/15 06:52:06;;;;;;;15.30;9.10;;;21.50;99.90;;;;;;5005818;28;20485;-69
2021/08/15 06:54:33;;;;;;;11.83;7.70;;;22.00;99.90;;;;;;5002333;28;20523;-69
2021/08/15 06:57:02;;;;;;;13.93;6.90;;;22.30;99.90;;;;;;5006876;28;20633;-71
2021/08/15 06:59:29;;;;;;;11.70;8.13;;;22.50;99.90;;;;;;5001185;28;20584;-70
2021/08/15 07:01:56;;;;;;;11.87;6.27;;;22.50;99.90;;;;;;5001673;28;21025;-72
2021/08/15 07:04:22;;;;;;;10.70;6.33;;;22.50;99.90;;;;;;5001966;28;20732;-70
2021/08/15 07:06:49;;;;;;;10.50;6.20;;;22.40;99.90;;;;;;5005566;28;20485;-69
2021/08/15 07:09:16;;;;;;;10.27;7.53;;;22.20;99.90;;;;;;4997323;28;20568;-69
2021/08/15 07:11:43;;;;;;;8.20;6.73;;;22.20;99.90;;;;;;5002337;28;20564;-70
2021/08/15 07:14:11;;;;;;;11.83;7.50;;;22.30;99.90;;;;;;5006956;28;20549;-69
2021/08/15 07:16:38;;;;;;;13.23;8.07;;;22.50;99.90;;;;;;4999957;28;20916;-69
2021/08/15 07:19:06;;;;;;;14.47;7.67;;;22.60;99.90;;;;;;5003389;28;20505;-71
2021/08/15 07:21:34;;;;;;;10.47;7.23;;;22.80;99.90;;;;;;5008238;28;20452;-71
2021/08/15 07:24:00;;;;;;;12.13;7.57;;;22.90;99.90;;;;;;4997846;28;20800;-69
2021/08/15 07:26:28;;;;;;;10.90;7.37;;;23.00;99.90;;;;;;5005304;28;20496;-71
2021/08/15 07:28:55;;;;;;;13.43;6.30;;;23.10;99.90;;;;;;5010538;28;20449;-70
2021/08/15 07:31:24;;;;;;;11.80;6.50;;;23.30;99.90;;;;;;5002240;28;20955;-70
2021/08/15 07:33:51;;;;;;;8.30;5.77;;;23.40;99.90;;;;;;5007766;28;20556;-70
2021/08/15 07:36:17;;;;;;;10.00;6.50;;;23.40;99.90;;;;;;4999153;28;20464;-69
2021/08/15 07:38:46;;;;;;;38.07;7.57;;;23.50;99.90;;;;;;4995305;28;20509;-70
2021/08/15 07:41:13;;;;;;;6.80;5.87;;;23.80;99.90;;;;;;4997912;28;20473;-71
2021/08/15 07:43:39;;;;;;;10.40;5.67;;;24.30;99.90;;;;;;4999222;28;20552;-71
2021/08/15 07:46:08;;;;;;;8.63;4.97;;;25.20;99.90;;;;;;4994851;28;20585;-72
2021/08/15 07:48:36;;;;;;;9.73;5.37;;;26.00;99.90;;;;;;4996570;28;21040;-71
2021/08/15 07:51:03;;;;;;;8.83;5.37;;;26.20;99.90;;;;;;4995495;28;20579;-71
2021/08/15 07:53:30;;;;;;;9.63;6.67;;;26.70;99.90;;;;;;4991888;28;21052;-71
2021/08/15 07:55:57;;;;;;;14.03;5.03;;;27.50;99.90;;;;;;5001467;28;20834;-71
2021/08/15 07:58:25;;;;;;;8.90;5.33;;;28.10;99.90;;;;;;5001032;28;20452;-70
2021/08/15 08:00:52;;;;;;;9.10;5.37;;;27.80;99.90;;;;;;4997483;28;20524;-70
2021/08/15 08:03:20;;;;;;;9.17;5.30;;;28.20;99.90;;;;;;4997576;28;20457;-72
2021/08/15 08:05:49;;;;;;;5.20;4.70;;;28.60;99.90;;;;;;4999548;28;20458;-70
2021/08/15 08:08:16;;;;;;;5.20;3.23;;;29.30;99.90;;;;;;4994546;28;20549;-70
2021/08/15 08:10:47;;;;;;;7.93;5.03;;;29.10;99.90;;;;;;4997875;28;20515;-70
2021/08/15 08:13:14;;;;;;;6.07;3.40;;;28.80;99.90;;;;;;4985430;28;20461;-72
2021/08/15 08:15:43;;;;;;;9.63;4.30;;;29.00;99.90;;;;;;4994634;28;21078;-71
2021/08/15 08:18:10;;;;;;;6.27;3.63;;;28.30;99.90;;;;;;5004597;28;20477;-71
2021/08/15 08:20:37;;;;;;;11.93;5.03;;;28.40;99.90;;;;;;4995463;28;20496;-68
2021/08/15 08:23:08;;;;;;;5.83;3.70;;;28.20;99.90;;;;;;5003690;28;20520;-71
2021/08/15 08:25:35;;;;;;;4.37;3.27;;;28.30;99.90;;;;;;5000240;28;20536;-71
2021/08/15 08:28:03;;;;;;;5.33;2.97;;;28.90;99.90;;;;;;5003931;28;21005;-70
2021/08/15 08:30:30;;;;;;;4.40;2.97;;;28.80;99.90;;;;;;4999004;28;20525;-70
2021/08/15 08:32:57;;;;;;;5.90;3.97;;;28.70;99.90;;;;;;5002954;28;20453;-69
2021/08/15 08:35:24;;;;;;;5.13;3.40;;;28.30;99.90;;;;;;5002221;28;20485;-71
2021/08/15 08:37:51;;;;;;;6.40;2.93;;;28.20;99.90;;;;;;5005499;28;20476;-71
2021/08/15 08:40:21;;;;;;;6.20;3.07;;;27.90;99.90;;;;;;5006983;28;20573;-69
2021/08/15 08:42:49;;;;;;;7.13;3.20;;;27.50;99.90;;;;;;5000778;28;20458;-70
2021/08/15 08:45:19;;;;;;;5.43;3.07;;;27.40;99.90;;;;;;5003181;28;20540;-71
2021/08/15 08:47:47;;;;;;;4.00;3.00;;;27.40;99.90;;;;;;4992889;28;20581;-70
2021/08/15 08:50:14;;;;;;;5.90;3.00;;;27.60;99.90;;;;;;4994997;28;20561;-71
2021/08/15 08:52:42;;;;;;;4.87;2.57;;;27.60;99.90;;;;;;4997218;28;21040;-72
2021/08/15 08:55:10;;;;;;;4.20;2.70;;;27.60;99.90;;;;;;4993120;28;21005;-71
2021/08/15 08:57:39;;;;;;;9.27;4.97;;;27.70;99.90;;;;;;4992984;28;20446;-74
2021/08/15 09:00:07;;;;;;;7.63;3.30;;;27.50;99.90;;;;;;4992839;28;20572;-72
2021/08/15 09:02:37;;;;;;;6.23;3.10;;;27.30;99.90;;;;;;4994825;28;20580;-70
2021/08/15 09:05:05;;;;;;;3.73;2.10;;;26.70;99.90;;;;;;4991040;28;21032;-73
2021/08/15 09:07:35;;;;;;;5.87;3.27;;;26.80;99.90;;;;;;4987042;28;20462;-70
2021/08/15 09:10:03;;;;;;;3.53;2.63;;;27.20;99.90;;;;;;4992601;28;20485;-71
2021/08/15 09:12:39;;;;;;;2.20;1.90;;;27.20;99.90;;;;;;4996499;28;20554;-73
2021/08/15 09:15:12;;;;;;;5.57;3.80;;;27.40;99.90;;;;;;4997959;28;20485;-69
2021/08/15 09:17:40;;;;;;;5.53;2.57;;;27.60;99.90;;;;;;4996922;28;20518;-69
2021/08/15 09:20:11;;;;;;;13.07;2.87;;;27.80;99.90;;;;;;4999385;28;20572;-70
2021/08/15 09:22:39;;;;;;;4.93;2.47;;;27.70;99.90;;;;;;4996953;28;20824;-70
2021/08/15 09:25:09;;;;;;;3.50;2.60;;;27.60;99.90;;;;;;5002561;28;20472;-70
2021/08/15 09:27:39;;;;;;;4.97;3.20;;;27.90;99.90;;;;;;4996812;28;20469;-70
2021/08/15 09:30:10;;;;;;;3.50;2.70;;;28.20;99.90;;;;;;4993526;28;20461;-70
2021/08/15 09:32:39;;;;;;;4.47;2.57;;;28.60;99.90;;;;;;4997109;28;20557;-71
2021/08/15 09:35:06;;;;;;;5.20;3.00;;;29.00;99.90;;;;;;4993898;28;20461;-70
2021/08/15 09:37:35;;;;;;;4.73;2.20;;;28.80;99.90;;;;;;4993542;28;20548;-72
2021/08/15 09:40:21;;;;;;;6.70;2.57;;;28.30;99.90;;;;;;4999920;28;20584;-70
2021/08/15 09:42:50;;;;;;;8.43;2.73;;;28.20;99.90;;;;;;4994323;28;20492;-69
2021/08/15 09:45:31;;;;;;;10.20;3.60;;;28.40;99.90;;;;;;4996559;28;20457;-70
2021/08/15 09:47:58;;;;;;;3.17;2.33;;;29.00;99.90;;;;;;4997092;28;20526;-71
2021/08/15 09:50:25;;;;;;;5.07;3.00;;;28.90;99.90;;;;;;4999508;28;20480;-71
2021/08/15 09:52:52;;;;;;;7.30;2.40;;;29.20;99.90;;;;;;4993541;28;20549;-66
2021/08/15 09:55:19;;;;;;;3.30;2.10;;;29.50;99.90;;;;;;4990764;28;20914;-70
2021/08/15 09:57:46;;;;;;;5.20;2.50;;;28.90;99.90;;;;;;4995005;28;20601;-71
2021/08/15 10:00:35;;;;;;;4.47;2.40;;;28.70;99.90;;;;;;4994561;28;20587;-71
2021/08/15 10:03:03;;;;;;;5.90;3.17;;;28.60;99.90;;;;;;4989156;28;20458;-69
2021/08/15 10:05:32;;;;;;;6.70;2.53;;;28.40;99.90;;;;;;4988252;28;20847;-71
2021/08/15 10:08:01;;;;;;;4.70;2.77;;;28.20;99.90;;;;;;4992925;28;20461;-70
2021/08/15 10:10:28;;;;;;;9.27;2.97;;;28.30;99.90;;;;;;4993613;28;21053;-72
2021/08/15 10:12:56;;;;;;;5.40;3.63;;;28.30;99.90;;;;;;4994817;28;20882;-71
2021/08/15 10:15:23;;;;;;;4.37;2.10;;;28.40;99.90;;;;;;5004936;28;20992;-72
2021/08/15 10:17:53;;;;;;;2.17;1.67;;;28.90;99.90;;;;;;5006966;28;20531;-70
2021/08/15 10:20:23;;;;;;;3.90;2.10;;;29.50;99.90;;;;;;5005023;28;20575;-70
2021/08/15 10:22:51;;;;;;;3.20;2.90;;;30.20;99.90;;;;;;5007661;28;20453;-71
2021/08/15 10:25:33;;;;;;;3.67;2.30;;;31.40;99.90;;;;;;4999486;28;20461;-70
2021/08/15 10:28:01;;;;;;;3.67;3.10;;;32.40;99.90;;;;;;5007274;28;20465;-70
2021/08/15 10:30:51;;;;;;;4.33;2.20;;;32.10;99.90;;;;;;5009962;28;20906;-71
2021/08/15 10:33:22;;;;;;;5.30;2.90;;;31.80;99.90;;;;;;5006225;28;20814;-71
2021/08/15 10:36:18;;;;;;;5.67;2.97;;;31.40;99.90;;;;;;5001658;28;20540;-71
2021/08/15 10:38:45;;;;;;;4.20;2.30;;;31.20;99.90;;;;;;5010060;28;20539;-70
2021/08/15 10:41:12;;;;;;;4.60;2.30;;;31.40;99.90;;;;;;5009034;28;20551;-71
2021/08/15 10:44:00;;;;;;;6.03;2.23;;;31.50;99.90;;;;;;5009870;28;20528;-72
2021/08/15 10:46:27;;;;;;;5.47;2.60;;;31.00;99.90;;;;;;5012083;28;20556;-70
2021/08/15 10:48:58;;;;;;;5.13;2.87;;;31.50;99.90;;;;;;5007420;28;20457;-72
2021/08/15 10:51:48;;;;;;;4.40;2.73;;;32.20;99.90;;;;;;5007487;28;20480;-71
2021/08/15 10:55:07;;;;;;;4.27;2.17;;;32.20;99.90;;;;;;5003999;28;20515;-71
2021/08/15 10:57:43;;;;;;;2.33;1.83;;;32.20;99.90;;;;;;5007533;28;21206;-69
2021/08/15 11:00:40;;;;;;;4.57;2.30;;;33.50;99.50;;;;;;5008675;28;20664;-70
2021/08/15 11:03:48;;;;;;;5.33;1.63;;;34.10;97.40;;;;;;5005896;28;20540;-70
2021/08/15 11:06:48;;;;;;;3.37;2.17;;;33.40;95.40;;;;;;5011686;28;20519;-70
2021/08/15 11:09:17;;;;;;;5.60;2.57;;;32.80;97.10;;;;;;5001584;28;20784;-68
2021/08/15 11:12:10;;;;;;;5.10;2.70;;;32.80;95.60;;;;;;5005990;28;20462;-70
2021/08/15 11:14:53;;;;;;;3.20;2.87;;;33.00;95.70;;;;;;5004227;28;20977;-68
2021/08/15 11:17:20;;;;;;;4.40;3.00;;;33.50;97.40;;;;;;4999011;28;20660;-73
2021/08/15 11:19:47;;;;;;;5.60;2.60;;;34.00;94.00;;;;;;5012249;28;20526;-71
2021/08/15 11:22:18;;;;;;;12.63;2.80;;;34.20;92.80;;;;;;5011514;28;20461;-72
2021/08/15 11:24:51;;;;;;;5.00;2.60;;;32.90;94.10;;;;;;5005973;28;20484;-70
2021/08/15 11:27:25;;;;;;;3.83;2.07;;;31.70;95.80;;;;;;5007880;28;20465;-68
2021/08/15 11:29:53;;;;;;;3.17;2.10;;;32.10;95.60;;;;;;5004603;28;20556;-71
2021/08/15 11:32:21;;;;;;;5.90;2.80;;;31.90;96.10;;;;;;4998912;28;20979;-72
2021/08/15 11:34:53;;;;;;;3.57;2.67;;;31.80;96.80;;;;;;5001329;28;20527;-71
2021/08/15 11:37:24;;;;;;;7.37;2.80;;;32.10;96.50;;;;;;4995066;28;20536;-70
2021/08/15 11:39:52;;;;;;;2.90;2.30;;;32.80;95.60;;;;;;4991920;28;20548;-72
2021/08/15 11:42:21;;;;;;;6.13;2.43;;;33.20;94.20;;;;;;4993541;28;20561;-71
2021/08/15 11:44:54;;;;;;;5.07;3.17;;;34.00;93.00;;;;;;4993241;28;21055;-72
2021/08/15 11:47:22;;;;;;;2.93;2.40;;;34.60;91.80;;;;;;5001036;28;20449;-68
2021/08/15 11:49:50;;;;;;;4.70;2.60;;;34.20;91.90;;;;;;4994827;28;20481;-70
2021/08/15 11:52:19;;;;;;;3.10;2.67;;;34.60;92.30;;;;;;4999330;28;20481;-70
2021/08/15 11:54:47;;;;;;;5.40;2.77;;;34.20;92.70;;;;;;5007106;28;20570;-71
2021/08/15 11:57:14;;;;;;;3.07;2.30;;;34.30;92.20;;;;;;5001485;28;20536;-70
2021/08/15 11:59:45;;;;;;;4.20;3.80;;;34.80;91.10;;;;;;5003250;28;20505;-72
2021/08/15 12:02:19;;;;;;;5.00;2.27;;;35.00;90.30;;;;;;5000212;28;20544;-72
2021/08/15 12:04:49;;;;;;;3.83;2.60;;;34.80;89.00;;;;;;5001855;28;20548;-70
2021/08/15 12:07:23;;;;;;;5.93;2.33;;;34.90;87.00;;;;;;5007126;28;20453;-71
2021/08/15 12:10:26;;;;;;;3.40;3.10;;;34.90;86.30;;;;;;4995360;28;20548;-71
2021/08/15 12:13:11;;;;;;;5.67;2.47;;;34.80;85.90;;;;;;4996498;28;20460;-71
2021/08/15 12:15:39;;;;;;;3.50;2.33;;;34.60;85.30;;;;;;4999605;28;20461;-72
2021/08/15 12:18:05;;;;;;;6.20;2.13;;;35.10;86.70;;;;;;4999119;28;20528;-71
2021/08/15 12:20:43;;;;;;;6.63;3.17;;;34.80;82.30;;;;;;4999123;28;20735;-72
2021/08/15 12:23:10;;;;;;;2.60;2.00;;;34.20;85.50;;;;;;4996370;28;21967;-70
2021/08/15 12:25:39;;;;;;;3.70;2.63;;;34.20;83.10;;;;;;4999017;28;20496;-68
2021/08/15 12:28:10;;;;;;;3.03;2.30;;;33.20;86.00;;;;;;5003885;28;20449;-70
2021/08/15 12:30:38;;;;;;;3.10;2.63;;;33.40;86.00;;;;;;4998005;28;20500;-71
2021/08/15 12:33:24;;;;;;;3.50;2.50;;;33.80;85.10;;;;;;4994944;28;20465;-72
2021/08/15 12:35:51;;;;;;;4.63;3.13;;;33.90;85.90;;;;;;4996392;28;21005;-70
2021/08/15 12:38:29;;;;;;;4.50;1.93;;;33.90;85.20;;;;;;5000858;28;20537;-70
2021/08/15 12:41:24;;;;;;;5.50;2.43;;;33.80;84.70;;;;;;4995275;28;20908;-70
2021/08/15 12:44:06;;;;;;;5.27;3.27;;;34.40;83.40;;;;;;5009610;28;20587;-71
2021/08/15 12:46:32;;;;;;;5.53;3.03;;;35.10;81.50;;;;;;5003364;28;20536;-71
2021/08/15 12:48:59;;;;;;;4.23;2.37;;;36.00;80.20;;;;;;5011854;28;20561;-70
2021/08/15 12:51:26;;;;;;;6.33;2.43;;;34.90;76.70;;;;;;5005366;28;20534;-69